Terminal Aerodrome Forecast
Issued by NWS

Home | Current Version | Previous Version | Text Only | Print | Product List | Glossary On
Versions: 1 2 3 4 5 6 7 8 9 10 11 12 13 14 15
000
FTUS46 KLOX 221700
TAFVNY
TAF
KVNY 221738Z 2218/2318 00000KT P6SM BKN250
     FM222200 14008KT P6SM SCT250
     FM230500 35010KT P6SM BKN250=

USA.gov is the U.S. government's official web portal to all federal, state and local government web resources and services.